sensor_id;sensor_type;location;lat;lon;timestamp;P1;durP1;ratioP1;P2;durP2;ratioP2
67602;SDS011;54417;47.454;18.918;2022-12-18T00:04:42;30.60;;;14.63;;
67602;SDS011;54417;47.454;18.918;2022-12-18T00:10:06;29.35;;;13.98;;
67602;SDS011;54417;47.454;18.918;2022-12-18T00:15:33;37.17;;;14.15;;
67602;SDS011;54417;47.454;18.918;2022-12-18T00:20:58;53.28;;;23.33;;
67602;SDS011;54417;47.454;18.918;2022-12-18T00:26:23;46.92;;;19.50;;
67602;SDS011;54417;47.454;18.918;2022-12-18T00:31:53;38.75;;;17.65;;
67602;SDS011;54417;47.454;18.918;2022-12-18T00:37:16;43.25;;;17.50;;
67602;SDS011;54417;47.454;18.918;2022-12-18T00:42:45;43.40;;;18.33;;
67602;SDS011;54417;47.454;18.918;2022-12-18T00:48:22;43.42;;;18.40;;
67602;SDS011;54417;47.454;18.918;2022-12-18T00:53:46;35.58;;;14.57;;
67602;SDS011;54417;47.454;18.918;2022-12-18T00:59:10;36.63;;;14.88;;
67602;SDS011;54417;47.454;18.918;2022-12-18T01:04:35;41.83;;;17.52;;
67602;SDS011;54417;47.454;18.918;2022-12-18T01:09:59;30.65;;;14.10;;
67602;SDS011;54417;47.454;18.918;2022-12-18T01:15:22;39.92;;;16.10;;
67602;SDS011;54417;47.454;18.918;2022-12-18T01:20:47;35.92;;;15.40;;
67602;SDS011;54417;47.454;18.918;2022-12-18T01:26:12;37.60;;;15.75;;
67602;SDS011;54417;47.454;18.918;2022-12-18T01:31:38;37.13;;;16.10;;
67602;SDS011;54417;47.454;18.918;2022-12-18T01:37:03;40.45;;;16.02;;
67602;SDS011;54417;47.454;18.918;2022-12-18T01:42:27;38.47;;;15.57;;
67602;SDS011;54417;47.454;18.918;2022-12-18T01:47:52;35.85;;;15.82;;
67602;SDS011;54417;47.454;18.918;2022-12-18T01:53:19;43.20;;;16.98;;
67602;SDS011;54417;47.454;18.918;2022-12-18T01:58:47;43.20;;;16.45;;
67602;SDS011;54417;47.454;18.918;2022-12-18T02:04:19;37.03;;;17.27;;
67602;SDS011;54417;47.454;18.918;2022-12-18T02:09:46;36.45;;;17.42;;
67602;SDS011;54417;47.454;18.918;2022-12-18T02:15:13;46.38;;;19.02;;
67602;SDS011;54417;47.454;18.918;2022-12-18T02:20:43;40.78;;;17.40;;
67602;SDS011;54417;47.454;18.918;2022-12-18T02:26:19;43.13;;;18.33;;
67602;SDS011;54417;47.454;18.918;2022-12-18T02:31:49;29.90;;;14.40;;
67602;SDS011;54417;47.454;18.918;2022-12-18T02:37:17;38.60;;;17.85;;
67602;SDS011;54417;47.454;18.918;2022-12-18T02:42:45;34.20;;;15.32;;
67602;SDS011;54417;47.454;18.918;2022-12-18T02:48:12;41.83;;;16.73;;
67602;SDS011;54417;47.454;18.918;2022-12-18T02:53:39;37.10;;;16.17;;
67602;SDS011;54417;47.454;18.918;2022-12-18T02:59:09;38.88;;;14.15;;
67602;SDS011;54417;47.454;18.918;2022-12-18T03:04:46;30.85;;;15.18;;
67602;SDS011;54417;47.454;18.918;2022-12-18T03:10:16;32.65;;;16.00;;
67602;SDS011;54417;47.454;18.918;2022-12-18T03:15:47;33.67;;;14.68;;
67602;SDS011;54417;47.454;18.918;2022-12-18T03:21:12;40.85;;;15.45;;
67602;SDS011;54417;47.454;18.918;2022-12-18T03:26:39;44.42;;;16.95;;
67602;SDS011;54417;47.454;18.918;2022-12-18T03:32:11;35.17;;;14.40;;
67602;SDS011;54417;47.454;18.918;2022-12-18T03:37:40;39.08;;;17.00;;
67602;SDS011;54417;47.454;18.918;2022-12-18T03:43:06;30.17;;;13.27;;
67602;SDS011;54417;47.454;18.918;2022-12-18T03:48:37;38.70;;;15.68;;
67602;SDS011;54417;47.454;18.918;2022-12-18T03:54:08;41.33;;;15.52;;
67602;SDS011;54417;47.454;18.918;2022-12-18T03:59:38;36.45;;;14.60;;
67602;SDS011;54417;47.454;18.918;2022-12-18T04:05:05;35.00;;;15.65;;
67602;SDS011;54417;47.454;18.918;2022-12-18T04:10:34;42.45;;;15.75;;
67602;SDS011;54417;47.454;18.918;2022-12-18T04:15:58;38.30;;;15.55;;
67602;SDS011;54417;47.454;18.918;2022-12-18T04:21:24;35.17;;;14.98;;
67602;SDS011;54417;47.454;18.918;2022-12-18T04:26:48;33.17;;;16.23;;
67602;SDS011;54417;47.454;18.918;2022-12-18T04:32:17;42.45;;;15.25;;
67602;SDS011;54417;47.454;18.918;2022-12-18T04:37:43;33.92;;;16.30;;
67602;SDS011;54417;47.454;18.918;2022-12-18T04:43:07;37.05;;;14.50;;
67602;SDS011;54417;47.454;18.918;2022-12-18T04:48:32;38.53;;;16.58;;
67602;SDS011;54417;47.454;18.918;2022-12-18T04:53:58;29.65;;;14.75;;
67602;SDS011;54417;47.454;18.918;2022-12-18T04:59:21;34.83;;;15.27;;
67602;SDS011;54417;47.454;18.918;2022-12-18T05:04:45;37.78;;;14.50;;
67602;SDS011;54417;47.454;18.918;2022-12-18T05:10:10;37.22;;;17.98;;
67602;SDS011;54417;47.454;18.918;2022-12-18T05:15:34;40.70;;;15.23;;
67602;SDS011;54417;47.454;18.918;2022-12-18T05:20:58;27.95;;;13.93;;
67602;SDS011;54417;47.454;18.918;2022-12-18T05:26:23;31.73;;;13.23;;
67602;SDS011;54417;47.454;18.918;2022-12-18T05:31:46;31.65;;;12.27;;
67602;SDS011;54417;47.454;18.918;2022-12-18T05:37:10;36.40;;;15.00;;
67602;SDS011;54417;47.454;18.918;2022-12-18T05:42:35;36.53;;;12.48;;
67602;SDS011;54417;47.454;18.918;2022-12-18T05:47:59;35.58;;;13.55;;
67602;SDS011;54417;47.454;18.918;2022-12-18T05:53:23;30.98;;;15.13;;
67602;SDS011;54417;47.454;18.918;2022-12-18T05:58:50;25.17;;;12.27;;
67602;SDS011;54417;47.454;18.918;2022-12-18T06:04:15;29.50;;;11.85;;
67602;SDS011;54417;47.454;18.918;2022-12-18T06:09:39;26.55;;;11.98;;
67602;SDS011;54417;47.454;18.918;2022-12-18T06:15:04;23.20;;;11.65;;
67602;SDS011;54417;47.454;18.918;2022-12-18T06:20:28;30.83;;;12.18;;
67602;SDS011;54417;47.454;18.918;2022-12-18T06:25:55;30.00;;;12.52;;
67602;SDS011;54417;47.454;18.918;2022-12-18T06:31:20;25.08;;;11.10;;
67602;SDS011;54417;47.454;18.918;2022-12-18T06:36:44;27.00;;;12.88;;
67602;SDS011;54417;47.454;18.918;2022-12-18T06:42:07;32.90;;;14.57;;
67602;SDS011;54417;47.454;18.918;2022-12-18T06:47:32;23.92;;;15.40;;
67602;SDS011;54417;47.454;18.918;2022-12-18T06:52:56;32.15;;;14.80;;
67602;SDS011;54417;47.454;18.918;2022-12-18T06:58:19;30.85;;;14.60;;
67602;SDS011;54417;47.454;18.918;2022-12-18T07:03:45;22.92;;;10.70;;
67602;SDS011;54417;47.454;18.918;2022-12-18T07:09:08;35.83;;;13.85;;
67602;SDS011;54417;47.454;18.918;2022-12-18T07:14:32;26.35;;;13.13;;
67602;SDS011;54417;47.454;18.918;2022-12-18T07:19:57;35.05;;;14.82;;
67602;SDS011;54417;47.454;18.918;2022-12-18T07:25:21;33.28;;;14.05;;
67602;SDS011;54417;47.454;18.918;2022-12-18T07:30:44;32.92;;;13.55;;
67602;SDS011;54417;47.454;18.918;2022-12-18T07:36:10;33.20;;;14.00;;
67602;SDS011;54417;47.454;18.918;2022-12-18T07:41:34;35.35;;;15.50;;
67602;SDS011;54417;47.454;18.918;2022-12-18T07:47:03;36.88;;;14.90;;
67602;SDS011;54417;47.454;18.918;2022-12-18T07:52:34;37.55;;;16.63;;
67602;SDS011;54417;47.454;18.918;2022-12-18T07:58:00;44.08;;;20.52;;
67602;SDS011;54417;47.454;18.918;2022-12-18T08:03:24;40.80;;;18.63;;
67602;SDS011;54417;47.454;18.918;2022-12-18T08:08:50;40.35;;;17.92;;
67602;SDS011;54417;47.454;18.918;2022-12-18T08:14:14;40.08;;;19.30;;
67602;SDS011;54417;47.454;18.918;2022-12-18T08:19:38;42.78;;;19.00;;
67602;SDS011;54417;47.454;18.918;2022-12-18T08:25:04;56.60;;;22.35;;
67602;SDS011;54417;47.454;18.918;2022-12-18T08:30:28;45.55;;;21.83;;
67602;SDS011;54417;47.454;18.918;2022-12-18T08:35:52;60.63;;;23.00;;
67602;SDS011;54417;47.454;18.918;2022-12-18T08:41:17;50.53;;;22.15;;
67602;SDS011;54417;47.454;18.918;2022-12-18T08:46:43;47.63;;;20.55;;
67602;SDS011;54417;47.454;18.918;2022-12-18T08:52:07;55.35;;;24.25;;
67602;SDS011;54417;47.454;18.918;2022-12-18T08:57:32;62.25;;;26.13;;
67602;SDS011;54417;47.454;18.918;2022-12-18T09:02:56;57.58;;;22.98;;
67602;SDS011;54417;47.454;18.918;2022-12-18T09:08:20;61.45;;;24.00;;
67602;SDS011;54417;47.454;18.918;2022-12-18T09:13:45;63.55;;;25.08;;
67602;SDS011;54417;47.454;18.918;2022-12-18T09:19:08;44.67;;;19.60;;
67602;SDS011;54417;47.454;18.918;2022-12-18T09:24:33;48.53;;;20.45;;
67602;SDS011;54417;47.454;18.918;2022-12-18T09:29:58;53.03;;;21.13;;
67602;SDS011;54417;47.454;18.918;2022-12-18T09:35:21;52.00;;;21.70;;
67602;SDS011;54417;47.454;18.918;2022-12-18T09:40:47;44.38;;;20.50;;
67602;SDS011;54417;47.454;18.918;2022-12-18T09:46:16;51.58;;;20.70;;
67602;SDS011;54417;47.454;18.918;2022-12-18T09:51:43;39.17;;;18.60;;
67602;SDS011;54417;47.454;18.918;2022-12-18T09:57:12;51.13;;;21.90;;
67602;SDS011;54417;47.454;18.918;2022-12-18T10:02:38;54.40;;;21.55;;
67602;SDS011;54417;47.454;18.918;2022-12-18T10:08:04;53.22;;;21.48;;
67602;SDS011;54417;47.454;18.918;2022-12-18T10:13:31;45.00;;;19.70;;
67602;SDS011;54417;47.454;18.918;2022-12-18T10:19:04;51.25;;;21.58;;
67602;SDS011;54417;47.454;18.918;2022-12-18T10:24:41;43.83;;;19.08;;
67602;SDS011;54417;47.454;18.918;2022-12-18T10:30:12;42.97;;;19.55;;
67602;SDS011;54417;47.454;18.918;2022-12-18T10:35:39;43.58;;;20.88;;
67602;SDS011;54417;47.454;18.918;2022-12-18T10:41:05;55.63;;;22.27;;
67602;SDS011;54417;47.454;18.918;2022-12-18T10:46:32;50.47;;;18.58;;
67602;SDS011;54417;47.454;18.918;2022-12-18T10:52:12;49.53;;;20.23;;
67602;SDS011;54417;47.454;18.918;2022-12-18T11:03:07;35.47;;;16.02;;
67602;SDS011;54417;47.454;18.918;2022-12-18T11:08:58;44.63;;;17.75;;
67602;SDS011;54417;47.454;18.918;2022-12-18T11:14:31;38.53;;;16.75;;
67602;SDS011;54417;47.454;18.918;2022-12-18T11:19:56;34.20;;;15.95;;
67602;SDS011;54417;47.454;18.918;2022-12-18T11:25:23;33.38;;;14.70;;
67602;SDS011;54417;47.454;18.918;2022-12-18T11:31:09;36.08;;;17.67;;
67602;SDS011;54417;47.454;18.918;2022-12-18T11:36:40;34.42;;;14.82;;
67602;SDS011;54417;47.454;18.918;2022-12-18T11:42:11;33.15;;;14.68;;
67602;SDS011;54417;47.454;18.918;2022-12-18T11:47:38;38.28;;;15.93;;
67602;SDS011;54417;47.454;18.918;2022-12-18T11:53:09;32.80;;;16.38;;
67602;SDS011;54417;47.454;18.918;2022-12-18T11:58:42;35.35;;;16.10;;
67602;SDS011;54417;47.454;18.918;2022-12-18T12:04:15;34.63;;;16.00;;
67602;SDS011;54417;47.454;18.918;2022-12-18T12:10:03;32.13;;;15.02;;
67602;SDS011;54417;47.454;18.918;2022-12-18T12:15:38;32.28;;;15.45;;
67602;SDS011;54417;47.454;18.918;2022-12-18T12:21:10;31.00;;;14.43;;
67602;SDS011;54417;47.454;18.918;2022-12-18T12:26:45;32.28;;;13.45;;
67602;SDS011;54417;47.454;18.918;2022-12-18T12:32:20;30.67;;;14.10;;
67602;SDS011;54417;47.454;18.918;2022-12-18T12:37:53;29.95;;;14.38;;
67602;SDS011;54417;47.454;18.918;2022-12-18T12:43:29;27.70;;;14.10;;
67602;SDS011;54417;47.454;18.918;2022-12-18T12:54:25;27.88;;;13.52;;
67602;SDS011;54417;47.454;18.918;2022-12-18T12:59:52;28.13;;;13.48;;
67602;SDS011;54417;47.454;18.918;2022-12-18T13:05:25;31.98;;;13.32;;
67602;SDS011;54417;47.454;18.918;2022-12-18T13:10:53;45.97;;;20.55;;
67602;SDS011;54417;47.454;18.918;2022-12-18T13:16:40;36.47;;;16.13;;
67602;SDS011;54417;47.454;18.918;2022-12-18T13:22:10;34.40;;;15.77;;
67602;SDS011;54417;47.454;18.918;2022-12-18T13:27:59;32.60;;;15.40;;
67602;SDS011;54417;47.454;18.918;2022-12-18T13:39:34;34.78;;;15.85;;
67602;SDS011;54417;47.454;18.918;2022-12-18T13:44:58;34.17;;;16.63;;
67602;SDS011;54417;47.454;18.918;2022-12-18T13:50:24;40.83;;;16.48;;
67602;SDS011;54417;47.454;18.918;2022-12-18T13:55:58;35.63;;;15.73;;
67602;SDS011;54417;47.454;18.918;2022-12-18T14:01:22;35.53;;;16.45;;
67602;SDS011;54417;47.454;18.918;2022-12-18T14:06:46;38.08;;;16.92;;
67602;SDS011;54417;47.454;18.918;2022-12-18T14:12:16;37.95;;;18.38;;
67602;SDS011;54417;47.454;18.918;2022-12-18T14:17:59;39.80;;;17.27;;
67602;SDS011;54417;47.454;18.918;2022-12-18T14:23:25;39.88;;;16.83;;
67602;SDS011;54417;47.454;18.918;2022-12-18T14:28:51;162.32;;;52.00;;
67602;SDS011;54417;47.454;18.918;2022-12-18T14:34:16;56.90;;;24.52;;
67602;SDS011;54417;47.454;18.918;2022-12-18T14:39:51;44.40;;;20.08;;
67602;SDS011;54417;47.454;18.918;2022-12-18T14:45:33;36.53;;;18.13;;
67602;SDS011;54417;47.454;18.918;2022-12-18T14:51:05;39.85;;;18.40;;
67602;SDS011;54417;47.454;18.918;2022-12-18T14:56:30;44.97;;;18.48;;
67602;SDS011;54417;47.454;18.918;2022-12-18T15:01:59;41.20;;;17.33;;
67602;SDS011;54417;47.454;18.918;2022-12-18T15:07:33;41.17;;;17.38;;
67602;SDS011;54417;47.454;18.918;2022-12-18T15:13:07;39.28;;;17.10;;
67602;SDS011;54417;47.454;18.918;2022-12-18T15:18:34;40.28;;;17.02;;
67602;SDS011;54417;47.454;18.918;2022-12-18T15:24:13;37.88;;;19.02;;
67602;SDS011;54417;47.454;18.918;2022-12-18T15:29:41;39.47;;;17.65;;
67602;SDS011;54417;47.454;18.918;2022-12-18T15:35:12;44.92;;;19.17;;
67602;SDS011;54417;47.454;18.918;2022-12-18T15:40:38;52.75;;;23.08;;
67602;SDS011;54417;47.454;18.918;2022-12-18T15:46:02;47.92;;;22.65;;
67602;SDS011;54417;47.454;18.918;2022-12-18T15:51:29;52.85;;;22.85;;
67602;SDS011;54417;47.454;18.918;2022-12-18T15:56:55;58.35;;;24.60;;
67602;SDS011;54417;47.454;18.918;2022-12-18T16:02:37;74.55;;;33.10;;
67602;SDS011;54417;47.454;18.918;2022-12-18T16:08:02;73.68;;;27.73;;
67602;SDS011;54417;47.454;18.918;2022-12-18T16:13:27;62.08;;;25.85;;
67602;SDS011;54417;47.454;18.918;2022-12-18T16:18:50;53.90;;;24.58;;
67602;SDS011;54417;47.454;18.918;2022-12-18T16:24:16;59.50;;;24.52;;
67602;SDS011;54417;47.454;18.918;2022-12-18T16:29:41;64.50;;;23.52;;
67602;SDS011;54417;47.454;18.918;2022-12-18T16:35:05;53.25;;;22.48;;
67602;SDS011;54417;47.454;18.918;2022-12-18T16:40:32;54.70;;;21.38;;
67602;SDS011;54417;47.454;18.918;2022-12-18T16:46:16;50.53;;;21.17;;
67602;SDS011;54417;47.454;18.918;2022-12-18T16:51:40;46.92;;;20.55;;
67602;SDS011;54417;47.454;18.918;2022-12-18T16:57:05;43.40;;;20.92;;
67602;SDS011;54417;47.454;18.918;2022-12-18T17:02:29;42.15;;;18.42;;
67602;SDS011;54417;47.454;18.918;2022-12-18T17:07:53;37.92;;;16.73;;
67602;SDS011;54417;47.454;18.918;2022-12-18T17:13:18;44.45;;;18.08;;
67602;SDS011;54417;47.454;18.918;2022-12-18T17:18:47;51.03;;;19.98;;
67602;SDS011;54417;47.454;18.918;2022-12-18T17:24:11;51.95;;;18.55;;
67602;SDS011;54417;47.454;18.918;2022-12-18T17:29:36;53.92;;;21.80;;
67602;SDS011;54417;47.454;18.918;2022-12-18T17:35:07;44.95;;;18.60;;
67602;SDS011;54417;47.454;18.918;2022-12-18T17:40:31;46.22;;;18.77;;
67602;SDS011;54417;47.454;18.918;2022-12-18T17:45:57;37.38;;;16.98;;
67602;SDS011;54417;47.454;18.918;2022-12-18T17:51:26;44.67;;;17.27;;
67602;SDS011;54417;47.454;18.918;2022-12-18T17:56:51;53.25;;;19.38;;
67602;SDS011;54417;47.454;18.918;2022-12-18T18:02:16;43.25;;;18.55;;
67602;SDS011;54417;47.454;18.918;2022-12-18T18:07:40;46.05;;;19.50;;
67602;SDS011;54417;47.454;18.918;2022-12-18T18:13:04;45.38;;;15.95;;
67602;SDS011;54417;47.454;18.918;2022-12-18T18:18:47;42.13;;;18.90;;
67602;SDS011;54417;47.454;18.918;2022-12-18T18:24:11;48.85;;;18.98;;
67602;SDS011;54417;47.454;18.918;2022-12-18T18:29:36;48.72;;;18.88;;
67602;SDS011;54417;47.454;18.918;2022-12-18T18:35:01;46.92;;;20.58;;
67602;SDS011;54417;47.454;18.918;2022-12-18T18:40:25;55.92;;;23.48;;
67602;SDS011;54417;47.454;18.918;2022-12-18T18:45:53;44.20;;;22.25;;
67602;SDS011;54417;47.454;18.918;2022-12-18T18:51:19;47.10;;;21.52;;
67602;SDS011;54417;47.454;18.918;2022-12-18T18:56:43;44.08;;;18.38;;
67602;SDS011;54417;47.454;18.918;2022-12-18T19:02:27;57.50;;;22.70;;
67602;SDS011;54417;47.454;18.918;2022-12-18T19:07:54;44.53;;;22.40;;
67602;SDS011;54417;47.454;18.918;2022-12-18T19:13:17;46.25;;;20.85;;
67602;SDS011;54417;47.454;18.918;2022-12-18T19:18:45;54.25;;;24.27;;
67602;SDS011;54417;47.454;18.918;2022-12-18T19:24:11;49.17;;;21.08;;
67602;SDS011;54417;47.454;18.918;2022-12-18T19:29:35;46.15;;;23.38;;
67602;SDS011;54417;47.454;18.918;2022-12-18T19:34:58;48.30;;;20.35;;
67602;SDS011;54417;47.454;18.918;2022-12-18T19:40:27;45.25;;;19.60;;
67602;SDS011;54417;47.454;18.918;2022-12-18T19:45:53;43.95;;;19.67;;
67602;SDS011;54417;47.454;18.918;2022-12-18T19:51:18;52.55;;;21.70;;
67602;SDS011;54417;47.454;18.918;2022-12-18T19:56:46;46.88;;;19.35;;
67602;SDS011;54417;47.454;18.918;2022-12-18T20:02:10;49.47;;;17.75;;
67602;SDS011;54417;47.454;18.918;2022-12-18T20:07:36;43.63;;;20.42;;
67602;SDS011;54417;47.454;18.918;2022-12-18T20:13:03;47.13;;;21.98;;
67602;SDS011;54417;47.454;18.918;2022-12-18T20:18:27;53.05;;;24.55;;
67602;SDS011;54417;47.454;18.918;2022-12-18T20:23:51;48.92;;;21.98;;
67602;SDS011;54417;47.454;18.918;2022-12-18T20:29:17;47.47;;;20.88;;
67602;SDS011;54417;47.454;18.918;2022-12-18T20:34:41;50.28;;;22.52;;
67602;SDS011;54417;47.454;18.918;2022-12-18T20:40:06;69.38;;;25.50;;
67602;SDS011;54417;47.454;18.918;2022-12-18T20:45:33;81.85;;;24.58;;
67602;SDS011;54417;47.454;18.918;2022-12-18T20:51:00;56.60;;;21.95;;
67602;SDS011;54417;47.454;18.918;2022-12-18T20:56:27;86.55;;;31.23;;
67602;SDS011;54417;47.454;18.918;2022-12-18T21:01:53;100.15;;;31.90;;
67602;SDS011;54417;47.454;18.918;2022-12-18T21:07:17;118.60;;;34.10;;
67602;SDS011;54417;47.454;18.918;2022-12-18T21:12:41;108.78;;;39.25;;
67602;SDS011;54417;47.454;18.918;2022-12-18T21:18:22;104.38;;;35.95;;
67602;SDS011;54417;47.454;18.918;2022-12-18T21:23:46;84.32;;;33.40;;
67602;SDS011;54417;47.454;18.918;2022-12-18T21:29:10;83.20;;;30.73;;
67602;SDS011;54417;47.454;18.918;2022-12-18T21:34:37;61.63;;;27.00;;
67602;SDS011;54417;47.454;18.918;2022-12-18T21:40:09;59.70;;;22.88;;
67602;SDS011;54417;47.454;18.918;2022-12-18T21:45:34;54.25;;;25.27;;
67602;SDS011;54417;47.454;18.918;2022-12-18T21:50:59;52.70;;;22.42;;
67602;SDS011;54417;47.454;18.918;2022-12-18T21:56:23;54.05;;;22.58;;
67602;SDS011;54417;47.454;18.918;2022-12-18T22:01:47;54.42;;;22.17;;
67602;SDS011;54417;47.454;18.918;2022-12-18T22:07:13;62.40;;;26.30;;
67602;SDS011;54417;47.454;18.918;2022-12-18T22:12:38;50.75;;;22.73;;
67602;SDS011;54417;47.454;18.918;2022-12-18T22:18:06;52.75;;;20.88;;
67602;SDS011;54417;47.454;18.918;2022-12-18T22:23:32;51.13;;;23.55;;
67602;SDS011;54417;47.454;18.918;2022-12-18T22:28:56;58.72;;;23.27;;
67602;SDS011;54417;47.454;18.918;2022-12-18T22:34:37;41.22;;;18.45;;
67602;SDS011;54417;47.454;18.918;2022-12-18T22:40:03;45.70;;;17.02;;
67602;SDS011;54417;47.454;18.918;2022-12-18T22:45:29;42.58;;;19.45;;
67602;SDS011;54417;47.454;18.918;2022-12-18T22:50:55;56.67;;;21.67;;
67602;SDS011;54417;47.454;18.918;2022-12-18T22:56:22;57.40;;;26.50;;
67602;SDS011;54417;47.454;18.918;2022-12-18T23:01:46;53.13;;;23.00;;
67602;SDS011;54417;47.454;18.918;2022-12-18T23:07:14;45.55;;;19.55;;
67602;SDS011;54417;47.454;18.918;2022-12-18T23:12:39;48.58;;;20.50;;
67602;SDS011;54417;47.454;18.918;2022-12-18T23:18:03;56.78;;;20.38;;
67602;SDS011;54417;47.454;18.918;2022-12-18T23:23:29;48.80;;;22.83;;
67602;SDS011;54417;47.454;18.918;2022-12-18T23:28:57;43.28;;;20.80;;
67602;SDS011;54417;47.454;18.918;2022-12-18T23:34:22;40.45;;;18.83;;
67602;SDS011;54417;47.454;18.918;2022-12-18T23:39:46;39.90;;;19.60;;
67602;SDS011;54417;47.454;18.918;2022-12-18T23:45:11;39.67;;;17.92;;
67602;SDS011;54417;47.454;18.918;2022-12-18T23:50:39;34.83;;;15.48;;
67602;SDS011;54417;47.454;18.918;2022-12-18T23:56:03;45.55;;;18.48;;
